Aérodrome :
LOGIN :

S'inscrire | Disclaimer

   EN    FR    IT 

 










Légende :    VFR   VFR Marginal   IFR   IFR Intensif   IFR Très Intensif
Visi : 
Plafond : 
>= 8 km
>= 3000ft
5 à 8 km
1000 à 3000 ft
1500m à 5 km
500 à 1000 ft
800 à 1500m
200 à 500 ft
< 800m
< 200 ft
Symboles :   Orages  Brouillard  Fortes neiges  Fortes précipitations  Vent > 20 kt
SIGMETs :   Divers  Orages  Givrage  Turbulence  Onde Orograph.  Cendres Volcan.







- Altitude de l'aérodrome : 863 ft
- Code IATA : ZAZ


LEZG - Zaragoza Aragon

DERNIER METAR :
  • 170730Z 31010KT 260V340 CAVOK 21/13 Q1020

METARs EXPIRÉS :
  • 170700Z 31009KT CAVOK 20/13 Q1020
  • 170630Z 31007KT CAVOK 19/12 Q1020
  • 170600Z 30010KT 270V340 CAVOK 19/12 Q1020
  • 170530Z 28010KT CAVOK 19/11 Q1020
  • 170500Z 28009KT CAVOK 18/11 Q1020

TAF TAF LEZG
Valide du 17 à 06h jusqu'au 18 à 06h UTC


170500Z 1706/1806 30014KT 9999 BKN040 TX34/1714Z TN20/1806Z
BECMG 1712/1715 VRB04KT
Pas de NOTAMs connus pour ce terrain.



MET'MAP, la Météo Aéronautique d'un coup d'oeil ! - Copyright ORBIFLY Décembre 2007 - Disclaimer

ORBIFLY MET'MAP TEAM :

Programmation & Développement : Alexandra Zaïnal
Conception & Développement : Baudouin d'Aumeries
Co-Programmation & Développement : Marc-Olivier Méhu
Soutien technique & logistique : Manuel Goepfert

Contact : metmap@orbifly.com




SOURCES & CREDITS :

   NOAA